Flight Track Log - Related Links

Times and Time Zones

All times are in EDT time to prevent confusion due to time zone crossing. See the SCM1 flight status page for this flight to view local times or setup timezone preferences in your user account.

Time Position Orientation Groundspeed Altitude Reporting Facility
EDT Latitude Longitude Course Direction KTS MPH feet Rate Location/Type
12:46PM 34.8319 -86.7769 North 185 213 7,100  Level Memphis Center
12:47PM 34.8956 -86.7681 North 191 220 9,000 1,694 Climbing Memphis Center
12:48PM 34.9519 -86.7644 North 195 224 10,600 1,500 Climbing Memphis Center
12:49PM 35.0103 -86.7603 North 203 234 12,100 1,355 Climbing Memphis Center
12:50PM 35.0503 -86.6986 52° Northeast 249 287 13,400 1,403 Climbing Memphis Center
12:51PM 35.0769 -86.6147 69° East 261 300 15,000 1,392 Climbing Memphis Center
12:52PM 35.1047 -86.5303 68° East 262 302 16,300 1,392 Climbing Memphis Center
12:53PM 35.1311 -86.4422 70° East 269 310 17,900 1,306 Climbing Memphis Center
12:54PM 35.1644 -86.3361 69° East 280 322 19,000 1,161 Climbing Memphis Center
12:55PM 35.1942 -86.2439 68° East 285 328 20,300 1,309 Climbing Memphis Center
12:56PM 35.2158 -86.1667 71° East 295 339 21,400 1,333 Climbing Atlanta Center
12:57PM 35.2486 -86.0733 67° East 300 345 22,700 1,100 Climbing Atlanta Center
12:58PM 35.2731 -85.9875 71° East 300 345 23,600 1,000 Climbing Atlanta Center
12:59PM 35.3061 -85.8839 69° East 312 359 24,700 1,100 Climbing Atlanta Center
01:00PM 35.3389 -85.7803 69° East 317 365 25,800 1,100 Climbing Atlanta Center
01:01PM 35.3694 -85.6764 70° East 317 365 26,900 1,000 Climbing Atlanta Center
01:02PM 35.4064 -85.5650 68° East 317 365 27,800 850 Climbing Atlanta Center
01:03PM 35.4367 -85.4611 70° East 326 375 28,600 834 Climbing Atlanta Center
01:04PM 35.4883 -85.2914 69° East 336 387 29,900 745 Climbing Memphis Center
01:05PM 35.5217 -85.1817 70° East 342 394 30,500 443 Climbing Memphis Center
01:07PM 35.5683 -85.0267 70° East 345 397 31,000 204 Climbing Atlanta Center
01:08PM 35.6025 -84.9097 70° East 350 403 31,000  Level Atlanta Center
01:09PM 35.6408 -84.7850 69° East 368 423 31,000  Level Atlanta Center
01:10PM 35.6792 -84.6575 70° East 381 438 31,000  Level Atlanta Center
01:11PM 35.7172 -84.5325 69° East 386 444 31,000  Level Atlanta Center
01:12PM 35.7553 -84.4022 70° East 386 444 31,000  Level Atlanta Center
01:13PM 35.7953 -84.2717 69° East 392 451 31,000  Level Atlanta Center
01:14PM 35.8331 -84.1411 70° East 398 458 31,000  Level Atlanta Center
01:15PM 35.8706 -84.0106 70° East 398 458 31,000  Level Atlanta Center
01:16PM 35.9100 -83.8797 70° East 403 464 31,000  Level Atlanta Center
01:17PM 35.9578 -83.7567 64° Northeast 403 464 31,000  Level Atlanta Center
01:18PM 36.0056 -83.6331 64° Northeast 398 458 31,000  Level Atlanta Center
01:19PM 36.0531 -83.5097 64° Northeast 393 452 31,000  Level Atlanta Center
01:20PM 36.1003 -83.3861 65° Northeast 393 452 31,000  Level Atlanta Center
01:21PM 36.1475 -83.2647 64° Northeast 393 452 31,000  Level Atlanta Center
01:22PM 36.1947 -83.1408 65° Northeast 393 452 31,000  Level Atlanta Center
01:23PM 36.2397 -83.0167 66° East 393 452 31,000  Level Atlanta Center
01:24PM 36.2867 -82.8978 64° Northeast 388 447 31,000  Level Atlanta Center
01:25PM 36.3333 -82.7758 65° Northeast 383 441 31,000  Level Atlanta Center
01:26PM 36.3800 -82.6539 65° Northeast 383 441 31,000  Level Atlanta Center
01:27PM 36.4244 -82.5319 66° East 383 441 31,000  Level Atlanta Center
01:28PM 36.4689 -82.4122 65° Northeast 378 435 31,000  Level Atlanta Center
01:29PM 36.5131 -82.2925 65° Northeast 378 435 31,000  Level Atlanta Center
01:30PM 36.5592 -82.1728 64° Northeast 378 435 31,000  Level Atlanta Center
01:31PM 36.6033 -82.0553 65° Northeast 378 435 31,000  Level Atlanta Center
01:32PM 36.6469 -81.9325 66° East 378 435 31,000  Level Atlanta Center
01:33PM 36.6908 -81.8150 65° Northeast 378 435 31,000  Level Atlanta Center
01:34PM 36.7344 -81.6947 66° East 378 435 31,000  Level Atlanta Center
01:35PM 36.7803 -81.5767 64° Northeast 378 435 31,000  Level Atlanta Center
01:36PM 36.8175 -81.4614 68° East 373 429 31,000  Level Atlanta Center
01:37PM 36.8608 -81.3433 65° Northeast 373 429 31,000  Level Atlanta Center
01:38PM 36.9039 -81.2225 66° East 373 429 31,000  Level Atlanta Center
01:39PM 36.9450 -81.1092 66° East 368 423 31,000  Level Atlanta Center
01:41PM 37.0331 -80.8633 66° East 377 434 31,000  Level Washington Center
01:42PM 37.0758 -80.7439 66° East 377 434 31,000  Level Washington Center
01:43PM 37.1261 -80.6403 59° Northeast 366 421 31,000  Level Washington Center
01:44PM 37.1783 -80.5369 58° Northeast 357 411 31,000  Level Washington Center
01:45PM 37.2328 -80.4336 56° Northeast 352 405 31,000  Level Washington Center
01:46PM 37.2736 -80.3003 69° East 358 412 31,000  Level Washington Center
01:47PM 37.3097 -80.1747 70° East 368 423 31,000  Level Washington Center
01:48PM 37.3436 -80.0511 71° East 368 423 31,000  Level Washington Center
01:49PM 37.3794 -79.9253 70° East 374 430 31,000  Level Washington Center
01:50PM 37.4108 -79.8119 71° East 381 438 31,000  Level Washington Center
01:51PM 37.4489 -79.6703 71° East 381 438 31,000  Level Washington Center
01:52PM 37.4822 -79.5464 71° East 375 432 31,000  Level Washington Center
01:53PM 37.5178 -79.4200 70° East 375 432 31,000  Level Washington Center
01:54PM 37.5508 -79.2958 71° East 375 432 31,000  Level Washington Center
01:55PM 37.5792 -79.1844 72° East 375 432 31,000  Level Washington Center
01:56PM 37.6164 -79.0578 70° East 375 432 31,000  Level Washington Center
01:57PM 37.6492 -78.9333 72° East 375 432 31,000  Level Washington Center
01:58PM 37.6839 -78.8089 71° East 375 432 31,000  Level Washington Center
01:59PM 37.7164 -78.6844 72° East 375 432 31,000  Level Washington Center
02:00PM 37.7553 -78.5414 71° East 380 437 31,000  Level Washington Center
02:01PM 37.7875 -78.4139 72° East 380 437 31,000  Level Washington Center
02:02PM 37.8219 -78.2864 71° East 380 437 31,000  Level Washington Center
02:03PM 37.8475 -78.1664 75° East 380 437 31,000  Level Washington Center
02:04PM 37.8814 -78.0411 71° East 380 437 31,000  Level Washington Center
02:05PM 37.9131 -77.9133 73° East 380 437 31,000  Level Washington Center
02:06PM 37.9447 -77.7853 73° East 380 437 31,000  Level Washington Center
02:07PM 37.9761 -77.6597 72° East 380 437 31,000  Level Washington Center
02:08PM 38.0258 -77.5503 60° Northeast 370 426 31,000  Level Washington Center
02:09PM 38.0756 -77.4461 59° Northeast 352 405 31,000  Level Washington Center
02:10PM 38.1272 -77.3392 58° Northeast 347 399 31,000  Level Washington Center
02:11PM 38.1786 -77.2347 58° Northeast 347 399 31,000  Level Washington Center
02:12PM 38.2322 -77.1222 59° Northeast 355 409 31,000  Level Washington Center
02:13PM 38.2836 -77.0147 59° Northeast 355 409 31,000  Level Washington Center
02:14PM 38.3350 -76.9100 58° Northeast 355 409 31,000  Level Washington Center
02:15PM 38.3861 -76.8022 59° Northeast 355 409 31,000  Level Washington Center
02:16PM 38.4392 -76.6917 58° Northeast 355 409 31,000  Level Washington Center
02:17PM 38.4922 -76.5836 58° Northeast 355 409 31,000  Level Washington Center
02:18PM 38.5431 -76.4756 59° Northeast 355 409 31,000  Level Washington Center
02:19PM 38.5939 -76.3647 60° Northeast 355 409 31,000  Level Washington Center
02:20PM 38.6467 -76.2536 59° Northeast 355 409 31,000  Level Washington Center
02:21PM 38.7078 -76.1292 58° Northeast 362 417 31,000 -661 Level Washington Center
02:22PM 38.7644 -76.0150 57° Northeast 367 422 29,700 -984 Descending Washington Center
02:23PM 38.8150 -75.8900 63° Northeast 374 430 29,000 -350 Descending Washington Center
02:24PM 38.8506 -75.7597 71° East 379 436 29,000  Level Washington Center
02:25PM 38.8819 -75.6289 73° East 379 436 29,000 -450 Level Washington Center
02:26PM 38.9175 -75.4983 71° East 379 436 28,100 -942 Descending Washington Center
02:27PM 38.9528 -75.3647 71° East 390 449 27,100 -984 Descending Washington Center
02:28PM 38.9814 -75.2417 73° East 390 449 26,100 -992 Descending Washington Center
02:29PM 39.0164 -75.1133 71° East 390 449 25,100 -1,017 Descending Washington Center
02:30PM 39.0492 -74.9822 72° East 385 443 24,100 -555 Descending Washington Center
02:31PM 39.0819 -74.8589 71° East 379 436 24,000 -49 Descending Washington Center
02:32PM 39.1397 -74.7594 53° Northeast 352 405 24,000 -99 Level Washington Center
02:33PM 39.2142 -74.6781 40° Northeast 335 386 23,800 -508 Descending Washington Center
02:34PM 39.2736 -74.5756 53° Northeast 346 398 23,000 -407 Descending Washington Center
02:35PM 39.3292 -74.4808 53° Northeast 346 398 23,000  Level Washington Center
02:36PM 39.3844 -74.3858 53° Northeast 341 392 23,000 -246 Level Washington Center
02:37PM 39.4397 -74.2883 54° Northeast 341 392 22,500 -942 Descending Washington Center
02:38PM 39.4947 -74.1906 54° Northeast 341 392 21,100 -882 Descending Washington Center
02:40PM 39.6086 -74.0069 51° Northeast 339 390 20,000 -776 Descending New York Center
02:41PM 39.6675 -73.9153 50° Northeast 333 383 18,900 -1,050 Descending New York Center
02:42PM 39.7239 -73.8289 50° Northeast 322 371 17,900 -1,000 Descending New York Center
02:43PM 39.7761 -73.7447 51° Northeast 311 358 16,900 -500 Descending New York Center
02:44PM 39.8283 -73.6606 51° Northeast 299 344 16,900  Level New York Center
02:45PM 39.8803 -73.5786 50° Northeast 294 338 16,900  Level New York Center
02:45PM 39.8889 -73.5600 59° Northeast 294 338 16,900  Level New York Center
02:46PM 39.9469 -73.4919 42° Northeast 294 338 16,900 -2,975 Level New York Center
02:47PM 40.0111 -73.4186 41° Northeast 289 333 11,000 -1,850 Descending New York Center
02:48PM 40.0667 -73.3503 43° Northeast 287 330 13,200  Climbing New York Center
02:49PM 40.1203 -73.2844 43° Northeast 270 311 11,000 -647 Descending New York Center
02:51PM 40.2294 -73.1575 42° Northeast 241 277 11,000  Level Boston Center
02:52PM 40.2919 -73.0806 43° Northeast 251 289 11,000 -254 Level Boston Center
02:54PM 40.4000 -72.9500 43° Northeast 245 282 10,200 -574 Descending New York TRACON
02:55PM 40.4500 -72.8833 45° Northeast 231 266 9,200 -1,000 Descending New York TRACON
02:56PM 40.5167 -72.8833 360° North 209 241 8,300 -1,000 Descending New York TRACON
02:57PM 40.5667 -72.9000 346° North 211 243 7,200 -571 Descending New York TRACON
02:58PM 40.6333 -72.9167 349° North 219 252 7,100 -50 Descending New York TRACON
02:59PM 40.6833 -72.9333 346° North 206 237 7,100  Level New York TRACON
03:00PM 40.7500 -72.9500 349° North 207 238 7,100  Level New York TRACON
03:01PM 40.8000 -72.9833 333° Northwest 201 231 7,100 -50 Level New York TRACON
03:02PM 40.8333 -73.0333 311° West 205 236 7,000 -600 Descending New York TRACON
03:03PM 40.8833 -73.0667 333° Northwest 198 228 5,900 -950 Descending New York TRACON
03:04PM 40.9333 -73.1167 323° Northwest 204 235 5,100 -381 Descending New York TRACON
03:06PM 40.9833 -73.1667 323° Northwest 204 235 5,100  Level New York TRACON
03:06PM 41.0167 -73.1833 339° North 197 227 5,100 -158 Level New York TRACON
03:07PM 41.0500 -73.2500 304° West 193 222 4,800 -500 Descending New York TRACON
03:08PM 41.0833 -73.3167 304° West 191 220 4,100 -842 Descending New York TRACON
03:09PM 41.0667 -73.3667 246° West 205 236 3,200 -500 Descending New York TRACON
03:10PM 41.0333 -73.4333 236° Southwest 215 247 3,100 -100 Descending New York TRACON
03:11PM 41.0000 -73.5000 236° Southwest 202 232 3,000 -300 Descending New York TRACON
03:12PM 40.9833 -73.5667 252° West 202 232 2,500 -474 Descending New York TRACON
03:13PM 40.9667 -73.6167 246° West 155 178 2,100 -200 Descending New York TRACON
03:14PM 41.0000 -73.6500 323° Northwest 129 148 2,100 -333 Level New York TRACON
03:15PM 41.0167 -73.6667 323° Northwest 111 128 1,400 -684 Descending New York TRACON
03:16PM 41.0500 -73.7000 323° Northwest 124 143 800 -667 Descending New York TRACON
03:18PM 41.0667 -73.7000 282° West  Level FlightAware Approximate
03:25PM 41.0669 -73.7076 273° West  Level Estimated

Login

Don't have an account? Register now (free) for customized features, flight alerts, and more!